Time;durP1;ratioP1;P1;durP2;ratioP2;P2;SDS_P1;SDS_P2;PMS_P1;PMS_P2;Temp;Humidity;BMP_temperature;BMP_pressure;BME280_temperature;BME280_humidity;BME280_pressure;Samples;Min_cycle;Max_cycle;Signal;HPM_P1;HPM_P2
2021/08/26 00:06:59;;;;;;;9.93;6.68;;;;;;;;;;5075399;28;20039;-78
2021/08/26 00:09:25;;;;;;;15.02;7.72;;;;;;;;;;5074159;28;20024;-78
2021/08/26 00:11:54;;;;;;;11.02;6.72;;;;;;;;;;5075525;28;20020;-78
2021/08/26 00:14:20;;;;;;;12.30;7.28;;;;;;;;;;5075884;28;20050;-78
2021/08/26 00:16:46;;;;;;;11.32;6.85;;;;;;;;;;5087164;28;20036;-78
2021/08/26 00:19:12;;;;;;;13.55;7.10;;;;;;;;;;5087311;28;20484;-78
2021/08/26 00:21:42;;;;;;;11.98;6.88;;;;;;;;;;5107745;28;20017;-78
2021/08/26 00:24:09;;;;;;;9.15;6.72;;;;;;;;;;5093546;28;20051;-78
2021/08/26 00:26:35;;;;;;;10.25;6.63;;;;;;;;;;5074270;28;20024;-78
2021/08/26 00:29:02;;;;;;;10.48;7.38;;;;;;;;;;5075368;28;20389;-78
2021/08/26 00:31:28;;;;;;;11.00;7.38;;;;;;;;;;5075303;28;20032;-78
2021/08/26 00:33:54;;;;;;;11.80;6.50;;;;;;;;;;5077255;28;20028;-79
2021/08/26 00:36:20;;;;;;;11.52;6.90;;;;;;;;;;5077920;28;20032;-79
2021/08/26 00:38:46;;;;;;;10.55;6.88;;;;;;;;;;5086364;28;20059;-78
2021/08/26 00:41:13;;;;;;;10.63;6.45;;;;;;;;;;5085439;28;20032;-77
2021/08/26 00:43:39;;;;;;;11.95;6.53;;;;;;;;;;5082537;28;20123;-79
2021/08/26 00:46:05;;;;;;;9.27;6.22;;;;;;;;;;5076199;28;20071;-79
2021/08/26 00:48:31;;;;;;;12.18;7.60;;;;;;;;;;5077605;28;20050;-79
2021/08/26 00:50:57;;;;;;;11.52;6.53;;;;;;;;;;5076255;28;20428;-79
2021/08/26 00:53:23;;;;;;;14.95;6.97;;;;;;;;;;5076648;28;20031;-79
2021/08/26 00:55:50;;;;;;;9.18;6.75;;;;;;;;;;5076798;28;20025;-78
2021/08/26 00:58:16;;;;;;;9.90;7.10;;;;;;;;;;5077307;28;20056;-79
2021/08/26 01:00:54;;;;;;;10.82;7.47;;;;;;;;;;5076400;28;20091;-79
2021/08/26 01:03:27;;;;;;;12.25;7.40;;;;;;;;;;5058918;28;20051;-79
2021/08/26 01:05:54;;;;;;;12.23;7.35;;;;;;;;;;5076233;28;20448;-80
2021/08/26 01:08:40;;;;;;;13.05;7.88;;;;;;;;;;5075927;28;20029;-79
2021/08/26 01:11:07;;;;;;;12.93;8.35;;;;;;;;;;5076922;28;20393;-79
2021/08/26 01:13:35;;;;;;;14.10;7.70;;;;;;;;;;5077312;28;20032;-79
2021/08/26 01:16:11;;;;;;;11.27;7.25;;;;;;;;;;5076244;28;20020;-78
2021/08/26 01:18:44;;;;;;;10.77;7.10;;;;;;;;;;5076834;28;20504;-79
2021/08/26 01:21:21;;;;;;;10.50;7.15;;;;;;;;;;5076885;28;20032;-78
2021/08/26 01:23:48;;;;;;;11.95;7.38;;;;;;;;;;5077684;28;20031;-79
2021/08/26 01:26:16;;;;;;;11.25;7.28;;;;;;;;;;5077385;28;20095;-80
2021/08/26 01:28:43;;;;;;;10.95;6.63;;;;;;;;;;5077222;28;20063;-79
2021/08/26 01:31:09;;;;;;;11.52;7.90;;;;;;;;;;5093244;28;20040;-80
2021/08/26 01:33:35;;;;;;;14.55;8.43;;;;;;;;;;5077477;28;20078;-79
2021/08/26 01:36:02;;;;;;;11.60;7.45;;;;;;;;;;5077852;28;20040;-80
2021/08/26 01:38:28;;;;;;;11.15;6.97;;;;;;;;;;5080832;28;20073;-79
2021/08/26 01:40:54;;;;;;;11.40;6.97;;;;;;;;;;5076504;28;20028;-80
2021/08/26 01:43:21;;;;;;;9.30;7.15;;;;;;;;;;5077794;28;20052;-80
2021/08/26 01:45:47;;;;;;;11.45;7.38;;;;;;;;;;5080484;28;20123;-80
2021/08/26 01:48:17;;;;;;;12.38;7.68;;;;;;;;;;5080439;28;20027;-78
2021/08/26 01:50:43;;;;;;;9.77;7.63;;;;;;;;;;5079788;28;20028;-78
2021/08/26 01:53:09;;;;;;;13.30;8.18;;;;;;;;;;5082477;28;20104;-78
2021/08/26 01:55:35;;;;;;;12.18;7.88;;;;;;;;;;5080647;28;20048;-76
2021/08/26 01:58:02;;;;;;;11.90;8.43;;;;;;;;;;5079363;28;20032;-79
2021/08/26 02:00:28;;;;;;;11.70;7.93;;;;;;;;;;5077825;28;20029;-79
2021/08/26 02:02:54;;;;;;;11.50;8.27;;;;;;;;;;5080040;28;20029;-78
2021/08/26 02:05:20;;;;;;;12.73;8.38;;;;;;;;;;5079429;28;20029;-79
2021/08/26 02:07:46;;;;;;;12.05;8.52;;;;;;;;;;5079477;28;20092;-77
2021/08/26 02:10:12;;;;;;;13.60;8.35;;;;;;;;;;5078140;28;20024;-80
2021/08/26 02:12:38;;;;;;;12.15;8.57;;;;;;;;;;5079986;28;20029;-79
2021/08/26 02:15:05;;;;;;;10.80;8.20;;;;;;;;;;5078221;28;20028;-78
2021/08/26 02:17:31;;;;;;;11.85;8.63;;;;;;;;;;5079545;28;20017;-79
2021/08/26 02:19:57;;;;;;;12.02;7.93;;;;;;;;;;5078709;28;20449;-79
2021/08/26 02:22:23;;;;;;;11.18;7.32;;;;;;;;;;5079874;28;20052;-79
2021/08/26 02:24:49;;;;;;;12.02;7.93;;;;;;;;;;5096621;28;20115;-79
2021/08/26 02:27:15;;;;;;;10.70;7.35;;;;;;;;;;5080045;28;20032;-79
2021/08/26 02:29:41;;;;;;;11.77;8.02;;;;;;;;;;5078668;28;20033;-78
2021/08/26 02:32:07;;;;;;;11.25;7.65;;;;;;;;;;5079905;28;20103;-78
2021/08/26 02:34:33;;;;;;;8.90;7.22;;;;;;;;;;5079618;28;20049;-77
2021/08/26 02:36:59;;;;;;;10.13;7.25;;;;;;;;;;5084457;28;20226;-77
2021/08/26 02:39:25;;;;;;;9.35;6.88;;;;;;;;;;5084883;28;20056;-76
2021/08/26 02:41:51;;;;;;;12.77;7.35;;;;;;;;;;5085652;28;20029;-76
2021/08/26 02:44:17;;;;;;;12.20;6.80;;;;;;;;;;5083342;28;20039;-79
2021/08/26 02:46:43;;;;;;;11.05;7.53;;;;;;;;;;5079532;28;20048;-78
2021/08/26 02:49:09;;;;;;;9.98;7.05;;;;;;;;;;5060717;28;20040;-79
2021/08/26 02:51:35;;;;;;;10.38;6.97;;;;;;;;;;5079136;28;20029;-79
2021/08/26 02:54:01;;;;;;;9.45;6.75;;;;;;;;;;5078573;28;20078;-78
2021/08/26 02:56:27;;;;;;;10.05;7.10;;;;;;;;;;5078374;28;20040;-78
2021/08/26 02:58:53;;;;;;;9.85;6.60;;;;;;;;;;5078273;28;20037;-77
2021/08/26 03:01:19;;;;;;;9.50;6.43;;;;;;;;;;5079206;28;20064;-78
2021/08/26 03:03:45;;;;;;;8.52;6.28;;;;;;;;;;5078743;28;20027;-78
2021/08/26 03:06:11;;;;;;;12.00;6.78;;;;;;;;;;5060218;28;20025;-79
2021/08/26 03:08:37;;;;;;;8.32;6.00;;;;;;;;;;5078253;28;20631;-79
2021/08/26 03:11:03;;;;;;;11.23;6.55;;;;;;;;;;5078350;28;20032;-79
2021/08/26 03:13:29;;;;;;;10.57;5.88;;;;;;;;;;5078349;28;20029;-79
2021/08/26 03:15:55;;;;;;;10.00;6.30;;;;;;;;;;5078434;28;20037;-79
2021/08/26 03:18:21;;;;;;;10.60;6.00;;;;;;;;;;5077685;28;20064;-79
2021/08/26 03:20:47;;;;;;;10.68;5.95;;;;;;;;;;5077631;28;20025;-79
2021/08/26 03:23:13;;;;;;;11.73;6.60;;;;;;;;;;5078200;28;20040;-79
2021/08/26 03:25:39;;;;;;;10.63;6.25;;;;;;;;;;5078927;28;20055;-79
2021/08/26 03:28:05;;;;;;;11.88;6.85;;;;;;;;;;5078657;28;20024;-79
2021/08/26 03:30:31;;;;;;;12.35;6.05;;;;;;;;;;5077322;28;20408;-79
2021/08/26 03:32:57;;;;;;;10.95;6.18;;;;;;;;;;5077928;28;20486;-79
2021/08/26 03:35:23;;;;;;;8.85;6.45;;;;;;;;;;5078372;28;20117;-79
2021/08/26 03:37:49;;;;;;;8.60;5.82;;;;;;;;;;5078175;28;20029;-78
2021/08/26 03:40:15;;;;;;;9.88;6.78;;;;;;;;;;5059764;28;20082;-78
2021/08/26 03:42:41;;;;;;;8.90;6.50;;;;;;;;;;5077248;28;20512;-79
2021/08/26 03:45:07;;;;;;;12.73;6.47;;;;;;;;;;5078001;28;20064;-78
2021/08/26 03:47:33;;;;;;;11.23;6.82;;;;;;;;;;5078696;28;20020;-79
2021/08/26 03:49:59;;;;;;;9.65;6.20;;;;;;;;;;5092903;28;20038;-79
2021/08/26 03:52:25;;;;;;;10.05;5.88;;;;;;;;;;5077271;28;20482;-78
2021/08/26 03:54:51;;;;;;;12.55;6.35;;;;;;;;;;5060004;28;20025;-79
2021/08/26 03:57:17;;;;;;;10.73;6.70;;;;;;;;;;5078084;28;20066;-79
2021/08/26 03:59:43;;;;;;;9.30;5.80;;;;;;;;;;5077264;28;20082;-78
2021/08/26 04:02:09;;;;;;;12.18;6.30;;;;;;;;;;5076040;28;20087;-79
2021/08/26 04:04:35;;;;;;;10.75;6.65;;;;;;;;;;5078056;28;20035;-78
2021/08/26 04:07:01;;;;;;;10.80;6.57;;;;;;;;;;5077348;28;20027;-79
2021/08/26 04:09:27;;;;;;;14.73;7.40;;;;;;;;;;5076931;28;20035;-79
2021/08/26 04:11:53;;;;;;;10.00;7.20;;;;;;;;;;5077423;28;20033;-79
2021/08/26 04:14:19;;;;;;;8.85;6.57;;;;;;;;;;5077380;28;20516;-78
2021/08/26 04:16:45;;;;;;;10.30;7.40;;;;;;;;;;5076875;28;20024;-78
2021/08/26 04:19:11;;;;;;;12.43;7.18;;;;;;;;;;5076220;28;20028;-77
2021/08/26 04:21:37;;;;;;;12.77;7.28;;;;;;;;;;5092426;28;20536;-77
2021/08/26 04:24:03;;;;;;;10.55;6.68;;;;;;;;;;5093259;28;20047;-77
2021/08/26 04:26:30;;;;;;;13.13;6.80;;;;;;;;;;5077230;28;20111;-77
2021/08/26 04:28:56;;;;;;;8.85;6.60;;;;;;;;;;5075468;28;20036;-77
2021/08/26 04:31:22;;;;;;;14.93;8.15;;;;;;;;;;5076374;28;20059;-77
2021/08/26 04:33:48;;;;;;;9.90;7.32;;;;;;;;;;5077455;28;20059;-78
2021/08/26 04:36:14;;;;;;;10.88;7.28;;;;;;;;;;5076406;28;20421;-78
2021/08/26 04:38:40;;;;;;;9.45;6.82;;;;;;;;;;5076701;28;20645;-79
2021/08/26 04:41:06;;;;;;;9.63;7.65;;;;;;;;;;5075933;28;20059;-79
2021/08/26 04:43:32;;;;;;;10.10;7.32;;;;;;;;;;5075871;28;20505;-78
2021/08/26 04:45:58;;;;;;;10.48;6.95;;;;;;;;;;5075931;28;20039;-79
2021/08/26 04:48:24;;;;;;;11.52;7.70;;;;;;;;;;5075805;28;20037;-79
2021/08/26 04:50:50;;;;;;;9.88;7.13;;;;;;;;;;5076228;28;20446;-78
2021/08/26 04:53:16;;;;;;;12.20;7.93;;;;;;;;;;5075634;28;20028;-78
2021/08/26 04:55:42;;;;;;;11.45;7.30;;;;;;;;;;5082028;28;20032;-77
2021/08/26 04:58:08;;;;;;;10.10;7.45;;;;;;;;;;5082043;28;20032;-76
2021/08/26 05:00:34;;;;;;;11.98;7.20;;;;;;;;;;5078821;28;20036;-78
2021/08/26 05:03:03;;;;;;;9.85;7.25;;;;;;;;;;5079375;28;20025;-76
2021/08/26 05:05:29;;;;;;;13.18;7.28;;;;;;;;;;5081403;28;20017;-75
2021/08/26 05:07:55;;;;;;;10.00;6.97;;;;;;;;;;5075432;28;20051;-77
2021/08/26 05:10:21;;;;;;;10.63;7.05;;;;;;;;;;5075089;28;20017;-77
2021/08/26 05:12:47;;;;;;;9.45;6.65;;;;;;;;;;5075652;28;20552;-77
2021/08/26 05:15:13;;;;;;;10.38;6.78;;;;;;;;;;5075090;28;20032;-78
2021/08/26 05:17:39;;;;;;;15.32;6.15;;;;;;;;;;5073793;28;20050;-77
2021/08/26 05:20:06;;;;;;;9.55;6.25;;;;;;;;;;5077968;28;20033;-78
2021/08/26 05:22:32;;;;;;;9.38;6.50;;;;;;;;;;5079087;28;20482;-77
2021/08/26 05:24:58;;;;;;;12.15;6.68;;;;;;;;;;5078353;28;20057;-78
2021/08/26 05:27:24;;;;;;;8.18;6.03;;;;;;;;;;5079734;28;20025;-77
2021/08/26 05:29:50;;;;;;;12.57;7.03;;;;;;;;;;5080561;28;20090;-78
2021/08/26 05:32:16;;;;;;;11.75;8.02;;;;;;;;;;5062069;28;20036;-77
2021/08/26 05:34:42;;;;;;;9.32;6.90;;;;;;;;;;5076376;28;20063;-78
2021/08/26 05:37:09;;;;;;;9.88;6.72;;;;;;;;;;5077104;28;20493;-77
2021/08/26 05:39:35;;;;;;;11.20;6.55;;;;;;;;;;5074001;28;20040;-78
2021/08/26 05:42:01;;;;;;;10.00;6.32;;;;;;;;;;5075030;28;20025;-77
2021/08/26 05:44:27;;;;;;;12.10;6.13;;;;;;;;;;5071678;28;20508;-77
2021/08/26 05:46:53;;;;;;;9.27;6.57;;;;;;;;;;5078522;28;20104;-77
2021/08/26 05:49:19;;;;;;;10.40;7.00;;;;;;;;;;5077460;28;20041;-76
2021/08/26 05:51:45;;;;;;;12.65;6.70;;;;;;;;;;5078178;28;20038;-76
2021/08/26 05:54:11;;;;;;;9.32;6.95;;;;;;;;;;5079572;28;20032;-77
2021/08/26 05:56:37;;;;;;;9.93;6.57;;;;;;;;;;5079429;28;20043;-77
2021/08/26 05:59:03;;;;;;;13.88;6.38;;;;;;;;;;5079208;28;20036;-77
2021/08/26 06:01:30;;;;;;;10.45;5.78;;;;;;;;;;5060542;28;20071;-77
2021/08/26 06:03:57;;;;;;;9.77;6.35;;;;;;;;;;5059782;28;20028;-77
2021/08/26 06:06:23;;;;;;;11.43;6.65;;;;;;;;;;5062090;28;20128;-77
2021/08/26 06:08:49;;;;;;;12.93;7.10;;;;;;;;;;5077530;28;20539;-77
2021/08/26 06:11:15;;;;;;;9.85;6.70;;;;;;;;;;5076556;28;20028;-77
2021/08/26 06:13:41;;;;;;;12.20;7.40;;;;;;;;;;5081354;28;20060;-77
2021/08/26 06:16:07;;;;;;;11.40;6.45;;;;;;;;;;5082938;28;20054;-77
2021/08/26 06:18:33;;;;;;;10.38;6.70;;;;;;;;;;5084705;28;20020;-77
2021/08/26 06:20:59;;;;;;;13.02;6.63;;;;;;;;;;5072842;28;20029;-77
2021/08/26 06:23:25;;;;;;;9.80;6.55;;;;;;;;;;5077940;28;20021;-75
2021/08/26 06:25:51;;;;;;;10.80;5.88;;;;;;;;;;5077588;28;20029;-77
2021/08/26 06:28:17;;;;;;;8.77;6.40;;;;;;;;;;5078983;28;20036;-76
2021/08/26 06:30:43;;;;;;;11.48;6.57;;;;;;;;;;5077394;28;20078;-76
2021/08/26 06:33:09;;;;;;;10.93;6.72;;;;;;;;;;5090376;22;20049;-75
2021/08/26 06:35:37;;;;;;;14.35;7.25;;;;;;;;;;5054012;28;20082;-75
2021/08/26 06:38:03;;;;;;;9.80;6.15;;;;;;;;;;5037067;28;20040;-77
2021/08/26 06:40:29;;;;;;;9.63;6.80;;;;;;;;;;5031439;28;20505;-77
2021/08/26 06:42:55;;;;;;;15.32;6.90;;;;;;;;;;5038324;28;20036;-77
2021/08/26 06:45:21;;;;;;;10.43;7.15;;;;;;;;;;5032484;28;20018;-77
2021/08/26 06:47:47;;;;;;;9.60;6.72;;;;;;;;;;5038613;28;20029;-76
2021/08/26 06:50:13;;;;;;;10.68;7.30;;;;;;;;;;5051172;28;20032;-77
2021/08/26 06:52:39;;;;;;;13.75;6.90;;;;;;;;;;5047772;28;20025;-79
2021/08/26 06:55:05;;;;;;;12.18;8.43;;;;;;;;;;5046756;28;20033;-76
2021/08/26 06:57:32;;;;;;;11.82;7.57;;;;;;;;;;5027992;28;20683;-76
2021/08/26 06:59:58;;;;;;;10.32;7.85;;;;;;;;;;5027593;28;20408;-76
2021/08/26 07:02:24;;;;;;;12.65;8.50;;;;;;;;;;5046656;28;20037;-77
2021/08/26 07:04:50;;;;;;;12.30;8.27;;;;;;;;;;5046835;28;20032;-76
2021/08/26 07:07:16;;;;;;;16.58;8.82;;;;;;;;;;5046461;28;20040;-77
2021/08/26 07:09:42;;;;;;;15.35;9.32;;;;;;;;;;5046458;28;20563;-75
2021/08/26 07:12:08;;;;;;;11.30;9.02;;;;;;;;;;5044632;28;20075;-76
2021/08/26 07:14:34;;;;;;;14.57;9.48;;;;;;;;;;5042481;28;20477;-76
2021/08/26 07:17:00;;;;;;;13.02;9.93;;;;;;;;;;5029498;28;20037;-78
2021/08/26 07:19:26;;;;;;;13.90;10.75;;;;;;;;;;5034581;28;20022;-78
2021/08/26 07:21:52;;;;;;;15.43;10.48;;;;;;;;;;5039940;28;20033;-78
2021/08/26 07:24:18;;;;;;;13.02;10.20;;;;;;;;;;5054928;28;20060;-77
2021/08/26 07:26:44;;;;;;;15.10;10.55;;;;;;;;;;5016293;28;20117;-77
2021/08/26 07:29:10;;;;;;;13.23;10.35;;;;;;;;;;5046758;28;20037;-77
2021/08/26 07:31:36;;;;;;;15.75;10.80;;;;;;;;;;5051670;28;20017;-78
2021/08/26 07:34:02;;;;;;;14.13;11.02;;;;;;;;;;5052673;28;20037;-78
2021/08/26 07:36:28;;;;;;;14.90;11.13;;;;;;;;;;5034186;28;20047;-76
2021/08/26 07:38:54;;;;;;;17.70;11.77;;;;;;;;;;5038271;28;20382;-76
2021/08/26 07:41:20;;;;;;;15.60;10.52;;;;;;;;;;5047319;28;20022;-76
2021/08/26 07:43:46;;;;;;;16.10;11.38;;;;;;;;;;5047935;28;20100;-77
2021/08/26 07:46:12;;;;;;;17.23;11.50;;;;;;;;;;5047726;28;20075;-77
2021/08/26 07:48:39;;;;;;;13.40;11.68;;;;;;;;;;5028624;28;20064;-77
2021/08/26 07:51:05;;;;;;;16.15;12.13;;;;;;;;;;5030594;28;20029;-77
2021/08/26 07:53:32;;;;;;;17.00;11.82;;;;;;;;;;5033630;28;20323;-76
2021/08/26 07:55:58;;;;;;;16.70;12.57;;;;;;;;;;5049610;28;20115;-76
2021/08/26 07:58:24;;;;;;;17.67;12.60;;;;;;;;;;5049250;28;20013;-76
2021/08/26 08:00:50;;;;;;;18.40;12.23;;;;;;;;;;5047315;28;20033;-76
2021/08/26 08:03:16;;;;;;;18.70;12.18;;;;;;;;;;5049031;28;20504;-75
2021/08/26 08:05:42;;;;;;;25.48;13.35;;;;;;;;;;5049257;28;20025;-76
2021/08/26 08:08:08;;;;;;;17.73;12.45;;;;;;;;;;5050087;28;20029;-76
2021/08/26 08:10:34;;;;;;;16.58;12.75;;;;;;;;;;5050021;28;20159;-75
2021/08/26 08:13:00;;;;;;;16.80;11.80;;;;;;;;;;5048552;28;20041;-75
2021/08/26 08:15:26;;;;;;;18.75;12.63;;;;;;;;;;5048261;28;20029;-75
2021/08/26 08:17:52;;;;;;;18.05;13.50;;;;;;;;;;5049643;28;20040;-77
2021/08/26 08:20:18;;;;;;;19.58;13.50;;;;;;;;;;5047578;28;20029;-78
2021/08/26 08:22:44;;;;;;;18.95;11.57;;;;;;;;;;5037696;28;20032;-78
2021/08/26 08:25:12;;;;;;;16.45;13.48;;;;;;;;;;5044958;28;20544;-77
2021/08/26 08:27:38;;;;;;;15.90;13.10;;;;;;;;;;5050200;28;20456;-78
2021/08/26 08:30:04;;;;;;;18.17;12.55;;;;;;;;;;5034591;28;20025;-77
2021/08/26 08:32:30;;;;;;;17.73;13.25;;;;;;;;;;5035154;28;20083;-77
2021/08/26 08:34:56;;;;;;;16.48;12.70;;;;;;;;;;5053351;28;20074;-79
2021/08/26 08:37:22;;;;;;;16.63;13.35;;;;;;;;;;5055123;28;20487;-78
2021/08/26 08:39:48;;;;;;;16.17;13.85;;;;;;;;;;5053097;28;20128;-79
2021/08/26 08:42:14;;;;;;;16.17;12.85;;;;;;;;;;5052979;28;20065;-78
2021/08/26 08:44:40;;;;;;;15.55;12.27;;;;;;;;;;5044645;28;20025;-79
2021/08/26 08:47:08;;;;;;;15.57;12.65;;;;;;;;;;5053698;28;20068;-79
2021/08/26 08:49:36;;;;;;;13.80;11.35;;;;;;;;;;5054622;28;20091;-78
2021/08/26 08:52:02;;;;;;;16.88;12.35;;;;;;;;;;5056013;28;20029;-79
2021/08/26 08:54:28;;;;;;;18.35;11.90;;;;;;;;;;5056804;28;20033;-79
2021/08/26 08:56:54;;;;;;;20.27;12.18;;;;;;;;;;5056698;28;20094;-78
2021/08/26 08:59:21;;;;;;;10.93;8.73;;;;;;;;;;5044214;28;20133;-78
2021/08/26 09:01:51;;;;;;;11.00;9.90;;;;;;;;;;5048709;28;20039;-79
2021/08/26 09:04:17;;;;;;;13.43;10.43;;;;;;;;;;5055732;28;20036;-79
2021/08/26 09:06:43;;;;;;;12.32;9.27;;;;;;;;;;5034518;28;20041;-78
2021/08/26 09:09:10;;;;;;;12.35;9.90;;;;;;;;;;5054858;28;20112;-78
2021/08/26 09:11:37;;;;;;;13.52;11.10;;;;;;;;;;5053670;28;20493;-78
2021/08/26 09:14:11;;;;;;;12.32;10.05;;;;;;;;;;5036384;28;20047;-79
2021/08/26 09:16:38;;;;;;;11.65;10.38;;;;;;;;;;5054060;28;20025;-79
2021/08/26 09:19:18;;;;;;;11.02;9.18;;;;;;;;;;5053829;28;20033;-78
2021/08/26 09:21:44;;;;;;;11.27;8.55;;;;;;;;;;5021254;28;20078;-79
2021/08/26 09:24:10;;;;;;;8.80;7.90;;;;;;;;;;5052690;28;20084;-78
2021/08/26 09:26:36;;;;;;;10.45;7.93;;;;;;;;;;5053219;28;20029;-79
2021/08/26 09:29:03;;;;;;;10.55;8.38;;;;;;;;;;5052623;28;20025;-78
2021/08/26 09:31:39;;;;;;;9.52;7.93;;;;;;;;;;5053977;28;20036;-79
2021/08/26 09:34:11;;;;;;;10.57;8.30;;;;;;;;;;5052795;28;20062;-79
2021/08/26 09:36:38;;;;;;;10.73;8.85;;;;;;;;;;5034915;28;20021;-79
2021/08/26 09:39:14;;;;;;;13.82;8.32;;;;;;;;;;5053087;28;20029;-79
2021/08/26 09:42:19;;;;;;;10.55;7.93;;;;;;;;;;5053128;28;20029;-78
2021/08/26 09:44:45;;;;;;;10.43;8.45;;;;;;;;;;4954149;29;20063;-78
2021/08/26 09:47:12;;;;;;;11.00;8.70;;;;;;;;;;4937130;29;20043;-78
2021/08/26 09:49:40;;;;;;;8.50;7.13;;;;;;;;;;4999737;28;20030;-78
2021/08/26 09:52:16;;;;;;;7.72;6.10;;;;;;;;;;5036327;28;20050;-78
2021/08/26 09:54:50;;;;;;;10.57;6.60;;;;;;;;;;5036826;28;20124;-78
2021/08/26 09:57:19;;;;;;;9.00;6.72;;;;;;;;;;5053481;28;20020;-78
2021/08/26 09:59:47;;;;;;;7.65;6.57;;;;;;;;;;5052832;28;20025;-79
2021/08/26 10:02:13;;;;;;;10.35;7.00;;;;;;;;;;5052958;28;20032;-79
2021/08/26 10:04:40;;;;;;;6.85;5.57;;;;;;;;;;5055883;28;20653;-78
2021/08/26 10:07:06;;;;;;;7.72;5.40;;;;;;;;;;5057807;28;20025;-78
2021/08/26 10:09:33;;;;;;;9.23;6.30;;;;;;;;;;5057606;28;20033;-78
2021/08/26 10:11:59;;;;;;;6.40;5.18;;;;;;;;;;5057941;28;20093;-78
2021/08/26 10:14:26;;;;;;;8.73;5.05;;;;;;;;;;5057330;28;20057;-77
2021/08/26 10:16:53;;;;;;;6.32;4.50;;;;;;;;;;5038563;28;20112;-77
2021/08/26 10:19:19;;;;;;;8.40;4.53;;;;;;;;;;5038777;28;20017;-78
2021/08/26 10:21:46;;;;;;;7.93;4.88;;;;;;;;;;5053424;28;20481;-78
2021/08/26 10:24:13;;;;;;;5.00;4.15;;;;;;;;;;5058757;28;20029;-78
2021/08/26 10:26:43;;;;;;;4.80;4.13;;;;;;;;;;5042850;28;20025;-78
2021/08/26 10:29:10;;;;;;;5.50;3.90;;;;;;;;;;5061455;28;20033;-77
2021/08/26 10:31:37;;;;;;;9.68;4.40;;;;;;;;;;5062110;28;20063;-78
2021/08/26 10:34:13;;;;;;;7.15;3.95;;;;;;;;;;5043198;28;20057;-79
2021/08/26 10:36:43;;;;;;;5.43;3.85;;;;;;;;;;5061252;28;20029;-78
2021/08/26 10:39:28;;;;;;;7.80;3.70;;;;;;;;;;5059939;28;20025;-78
2021/08/26 10:41:55;;;;;;;6.05;4.22;;;;;;;;;;5042032;28;20613;-79
2021/08/26 10:44:21;;;;;;;5.53;4.28;;;;;;;;;;5059422;28;20013;-78
2021/08/26 10:46:52;;;;;;;5.43;3.72;;;;;;;;;;5060558;28;21025;-78
2021/08/26 10:49:19;;;;;;;4.80;3.63;;;;;;;;;;5042393;28;20029;-77
2021/08/26 10:51:46;;;;;;;5.38;3.92;;;;;;;;;;5059375;28;20425;-78
2021/08/26 10:54:31;;;;;;;6.13;3.88;;;;;;;;;;5061121;28;20032;-78
2021/08/26 10:57:17;;;;;;;6.47;3.72;;;;;;;;;;5062681;28;20040;-78
2021/08/26 10:59:43;;;;;;;6.47;3.33;;;;;;;;;;5061262;28;20040;-78
2021/08/26 11:02:29;;;;;;;5.07;3.80;;;;;;;;;;5045860;28;20057;-78
2021/08/26 11:05:15;;;;;;;6.03;3.40;;;;;;;;;;5068975;28;20059;-78
2021/08/26 11:07:42;;;;;;;4.25;3.10;;;;;;;;;;5037962;28;20037;-78
2021/08/26 11:10:28;;;;;;;5.13;3.08;;;;;;;;;;5057687;28;20036;-81
2021/08/26 11:13:14;;;;;;;5.32;3.17;;;;;;;;;;5056533;28;20078;-80
2021/08/26 11:15:40;;;;;;;4.32;2.75;;;;;;;;;;5053936;28;20107;-80
2021/08/26 11:18:26;;;;;;;6.00;3.20;;;;;;;;;;5054923;28;20033;-80
2021/08/26 11:20:52;;;;;;;5.63;2.50;;;;;;;;;;5050874;28;20045;-81
2021/08/26 11:23:18;;;;;;;4.32;2.97;;;;;;;;;;5050556;28;20094;-80
2021/08/26 11:25:44;;;;;;;4.97;2.78;;;;;;;;;;5048948;28;20033;-81
2021/08/26 11:28:29;;;;;;;4.53;3.20;;;;;;;;;;5055775;28;20021;-80
2021/08/26 11:31:13;;;;;;;6.35;2.63;;;;;;;;;;5048988;28;20109;-77
2021/08/26 11:33:39;;;;;;;4.00;2.65;;;;;;;;;;5050324;28;20030;-79
2021/08/26 11:36:15;;;;;;;6.13;2.83;;;;;;;;;;5055178;28;20079;-79
2021/08/26 11:38:59;;;;;;;4.80;2.83;;;;;;;;;;5047880;28;20039;-78
2021/08/26 11:41:25;;;;;;;7.00;2.83;;;;;;;;;;5052052;28;20040;-78
2021/08/26 11:43:51;;;;;;;4.53;2.67;;;;;;;;;;5030256;28;20543;-78
2021/08/26 11:46:18;;;;;;;4.85;3.13;;;;;;;;;;5034945;28;20029;-79
2021/08/26 11:48:48;;;;;;;5.65;3.22;;;;;;;;;;5056403;28;20029;-79
2021/08/26 11:51:21;;;;;;;4.95;2.72;;;;;;;;;;5051795;28;20052;-79
2021/08/26 11:53:47;;;;;;;5.68;3.22;;;;;;;;;;5048751;28;20444;-79
2021/08/26 11:56:13;;;;;;;7.40;3.33;;;;;;;;;;5046667;28;20041;-79
2021/08/26 11:58:39;;;;;;;4.10;3.00;;;;;;;;;;5052081;28;20798;-79
2021/08/26 12:01:06;;;;;;;6.60;3.47;;;;;;;;;;5033845;28;20085;-80
2021/08/26 12:03:32;;;;;;;5.90;3.10;;;;;;;;;;5028531;28;20033;-79
2021/08/26 12:05:59;;;;;;;5.30;3.30;;;;;;;;;;5027165;28;20036;-79
2021/08/26 12:08:25;;;;;;;4.38;3.15;;;;;;;;;;5024425;28;20759;-79
2021/08/26 12:10:52;;;;;;;3.90;3.08;;;;;;;;;;5024352;28;20022;-79
2021/08/26 12:13:22;;;;;;;5.68;3.15;;;;;;;;;;5030991;28;20025;-79
2021/08/26 12:15:49;;;;;;;5.40;3.30;;;;;;;;;;5042201;28;20104;-78
2021/08/26 12:18:15;;;;;;;5.82;3.47;;;;;;;;;;5041924;28;20029;-78
2021/08/26 12:20:43;;;;;;;4.65;3.08;;;;;;;;;;5042884;28;20030;-78
2021/08/26 12:23:09;;;;;;;5.25;3.35;;;;;;;;;;5018393;28;20104;-78
2021/08/26 12:25:37;;;;;;;5.03;3.42;;;;;;;;;;5034629;28;20025;-78
2021/08/26 12:28:07;;;;;;;6.47;3.33;;;;;;;;;;5049389;28;20030;-78
2021/08/26 12:30:41;;;;;;;9.23;3.88;;;;;;;;;;5047618;28;20075;-78
2021/08/26 12:33:08;;;;;;;7.93;3.30;;;;;;;;;;5048907;28;20072;-79
2021/08/26 12:36:01;;;;;;;4.82;2.80;;;;;;;;;;5047372;28;20021;-78
2021/08/26 12:38:32;;;;;;;5.70;3.50;;;;;;;;;;5040561;28;20037;-78
2021/08/26 12:40:59;;;;;;;5.10;3.50;;;;;;;;;;5043319;28;20029;-78
2021/08/26 12:43:26;;;;;;;7.50;3.08;;;;;;;;;;5040297;28;20057;-79
2021/08/26 12:46:24;;;;;;;4.45;3.15;;;;;;;;;;5025750;28;20033;-79
2021/08/26 12:48:51;;;;;;;4.97;3.03;;;;;;;;;;5042874;28;20683;-79
2021/08/26 12:51:25;;;;;;;5.82;3.08;;;;;;;;;;5041023;28;20032;-79
2021/08/26 12:54:12;;;;;;;5.05;3.03;;;;;;;;;;5039441;28;20108;-78
2021/08/26 12:56:49;;;;;;;4.63;3.15;;;;;;;;;;5042774;28;20033;-78
2021/08/26 12:59:16;;;;;;;4.22;2.50;;;;;;;;;;5046213;28;20043;-78
2021/08/26 13:01:49;;;;;;;6.28;2.80;;;;;;;;;;5044550;28;20502;-79
2021/08/26 13:04:17;;;;;;;5.10;2.90;;;;;;;;;;5023184;28;20017;-79
2021/08/26 13:06:44;;;;;;;4.95;2.72;;;;;;;;;;5040393;28;20116;-79
2021/08/26 13:09:11;;;;;;;4.72;2.70;;;;;;;;;;5039185;28;20017;-79
2021/08/26 13:11:58;;;;;;;5.38;2.90;;;;;;;;;;5043476;28;20946;-79
2021/08/26 13:14:28;;;;;;;3.92;2.60;;;;;;;;;;5028724;28;20032;-79
2021/08/26 13:16:54;;;;;;;3.13;2.05;;;;;;;;;;5043256;28;20199;-79
2021/08/26 13:19:20;;;;;;;3.95;2.40;;;;;;;;;;5044748;28;20064;-79
2021/08/26 13:21:46;;;;;;;4.78;2.38;;;;;;;;;;5021555;28;20018;-79
2021/08/26 13:24:12;;;;;;;5.53;2.20;;;;;;;;;;5040585;28;20021;-79
2021/08/26 13:26:38;;;;;;;3.95;2.53;;;;;;;;;;5045099;28;20025;-79
2021/08/26 13:29:04;;;;;;;5.55;2.42;;;;;;;;;;5023568;28;20032;-79
2021/08/26 13:31:30;;;;;;;2.70;2.10;;;;;;;;;;5025037;28;20036;-79
2021/08/26 13:33:57;;;;;;;5.10;2.42;;;;;;;;;;5039847;28;20045;-79
2021/08/26 13:36:23;;;;;;;3.33;2.00;;;;;;;;;;5042367;28;20030;-79
2021/08/26 13:38:49;;;;;;;2.97;2.00;;;;;;;;;;5021865;28;20048;-79
2021/08/26 13:41:15;;;;;;;3.60;2.33;;;;;;;;;;5044718;28;20024;-79
2021/08/26 13:43:41;;;;;;;3.95;2.08;;;;;;;;;;5027005;28;20039;-79
2021/08/26 13:46:09;;;;;;;4.95;2.20;;;;;;;;;;5044454;28;20567;-79
2021/08/26 13:48:35;;;;;;;5.32;2.00;;;;;;;;;;5045604;28;20045;-79
2021/08/26 13:51:01;;;;;;;3.17;2.10;;;;;;;;;;5047267;28;20513;-79
2021/08/26 13:53:27;;;;;;;4.47;2.40;;;;;;;;;;5043943;28;20029;-80
2021/08/26 13:55:53;;;;;;;7.97;2.55;;;;;;;;;;5048646;28;20113;-80
2021/08/26 13:58:19;;;;;;;4.35;2.22;;;;;;;;;;5046268;28;20036;-79
2021/08/26 14:00:50;;;;;;;5.82;2.10;;;;;;;;;;5040628;28;20032;-79
2021/08/26 14:03:16;;;;;;;4.18;2.60;;;;;;;;;;5043847;28;20032;-79
2021/08/26 14:05:42;;;;;;;6.03;2.30;;;;;;;;;;5044004;28;20116;-79
2021/08/26 14:08:08;;;;;;;5.85;2.35;;;;;;;;;;5043934;28;20036;-78
2021/08/26 14:10:34;;;;;;;3.85;2.00;;;;;;;;;;5045675;28;20090;-79
2021/08/26 14:13:03;;;;;;;5.40;2.70;;;;;;;;;;5045880;28;20025;-79
2021/08/26 14:15:29;;;;;;;5.57;2.10;;;;;;;;;;5046934;28;20420;-79
2021/08/26 14:17:55;;;;;;;3.90;1.90;;;;;;;;;;5067297;22;20661;-77
2021/08/26 14:20:21;;;;;;;4.10;2.58;;;;;;;;;;5066510;28;20028;-76
2021/08/26 14:22:47;;;;;;;4.90;2.33;;;;;;;;;;5054341;28;20656;-77
2021/08/26 14:25:13;;;;;;;4.53;2.30;;;;;;;;;;5062660;28;20025;-77
2021/08/26 14:27:39;;;;;;;5.00;2.10;;;;;;;;;;5072993;28;20515;-77
2021/08/26 14:30:06;;;;;;;3.50;2.00;;;;;;;;;;5070644;28;20067;-77
2021/08/26 14:32:32;;;;;;;3.63;2.05;;;;;;;;;;5070550;28;20066;-76
2021/08/26 14:34:58;;;;;;;3.47;1.83;;;;;;;;;;5070846;28;20101;-77
2021/08/26 14:37:24;;;;;;;3.53;1.73;;;;;;;;;;5051932;28;20031;-76
2021/08/26 14:39:50;;;;;;;4.15;1.88;;;;;;;;;;5069989;28;20033;-76
2021/08/26 14:42:16;;;;;;;2.40;1.70;;;;;;;;;;5053136;28;20035;-77